sensor_id;sensor_type;location;lat;lon;timestamp;temperature;humidity
78536;SHT31;67829;51.968;5.684;2023-10-09T00:02:23;17.2;74.6
78536;SHT31;67829;51.968;5.684;2023-10-09T00:04:51;17.2;74.6
78536;SHT31;67829;51.968;5.684;2023-10-09T00:07:23;17.2;74.5
78536;SHT31;67829;51.968;5.684;2023-10-09T00:09:56;17.2;74.6
78536;SHT31;67829;51.968;5.684;2023-10-09T00:12:26;17.2;74.7
78536;SHT31;67829;51.968;5.684;2023-10-09T00:14:55;17.2;74.7
78536;SHT31;67829;51.968;5.684;2023-10-09T00:17:29;17.2;74.7
78536;SHT31;67829;51.968;5.684;2023-10-09T00:19:58;17.2;74.5
78536;SHT31;67829;51.968;5.684;2023-10-09T00:22:32;17.2;74.4
78536;SHT31;67829;51.968;5.684;2023-10-09T00:25:08;17.2;74.2
78536;SHT31;67829;51.968;5.684;2023-10-09T00:27:46;17.2;73.8
78536;SHT31;67829;51.968;5.684;2023-10-09T00:30:16;17.2;73.5
78536;SHT31;67829;51.968;5.684;2023-10-09T00:32:48;17.3;73.6
78536;SHT31;67829;51.968;5.684;2023-10-09T00:35:25;17.3;73.6
78536;SHT31;67829;51.968;5.684;2023-10-09T00:38:11;17.3;73.6
78536;SHT31;67829;51.968;5.684;2023-10-09T00:40:50;17.2;73.6
78536;SHT31;67829;51.968;5.684;2023-10-09T00:43:29;17.2;73.8
78536;SHT31;67829;51.968;5.684;2023-10-09T00:46:00;17.2;74.0
78536;SHT31;67829;51.968;5.684;2023-10-09T00:48:35;17.2;74.0
78536;SHT31;67829;51.968;5.684;2023-10-09T00:51:06;17.2;74.1
78536;SHT31;67829;51.968;5.684;2023-10-09T00:53:42;17.2;74.2
78536;SHT31;67829;51.968;5.684;2023-10-09T00:56:11;17.2;74.3
78536;SHT31;67829;51.968;5.684;2023-10-09T00:58:46;17.2;74.6
78536;SHT31;67829;51.968;5.684;2023-10-09T01:01:15;17.2;74.7
78536;SHT31;67829;51.968;5.684;2023-10-09T01:03:44;17.2;74.9
78536;SHT31;67829;51.968;5.684;2023-10-09T01:06:12;17.2;74.9
78536;SHT31;67829;51.968;5.684;2023-10-09T01:08:47;17.2;75.0
78536;SHT31;67829;51.968;5.684;2023-10-09T01:11:28;17.2;75.1
78536;SHT31;67829;51.968;5.684;2023-10-09T01:13:57;17.2;75.1
78536;SHT31;67829;51.968;5.684;2023-10-09T01:16:33;17.2;75.1
78536;SHT31;67829;51.968;5.684;2023-10-09T01:19:03;17.2;75.1
78536;SHT31;67829;51.968;5.684;2023-10-09T01:21:37;17.3;75.1
78536;SHT31;67829;51.968;5.684;2023-10-09T01:24:06;17.3;75.1
78536;SHT31;67829;51.968;5.684;2023-10-09T01:26:37;17.3;74.9
78536;SHT31;67829;51.968;5.684;2023-10-09T01:29:14;17.3;74.9
78536;SHT31;67829;51.968;5.684;2023-10-09T01:31:46;17.3;74.8
78536;SHT31;67829;51.968;5.684;2023-10-09T01:34:21;17.3;74.8
78536;SHT31;67829;51.968;5.684;2023-10-09T01:36:58;17.4;74.7
78536;SHT31;67829;51.968;5.684;2023-10-09T01:39:33;17.4;74.6
78536;SHT31;67829;51.968;5.684;2023-10-09T01:42:06;17.4;74.6
78536;SHT31;67829;51.968;5.684;2023-10-09T01:44:36;17.4;74.5
78536;SHT31;67829;51.968;5.684;2023-10-09T01:47:09;17.4;74.6
78536;SHT31;67829;51.968;5.684;2023-10-09T01:49:45;17.4;74.6
78536;SHT31;67829;51.968;5.684;2023-10-09T01:52:16;17.5;74.5
78536;SHT31;67829;51.968;5.684;2023-10-09T01:54:46;17.5;74.5
78536;SHT31;67829;51.968;5.684;2023-10-09T01:57:16;17.5;74.3
78536;SHT31;67829;51.968;5.684;2023-10-09T01:59:49;17.5;74.4
78536;SHT31;67829;51.968;5.684;2023-10-09T02:02:20;17.5;74.3
78536;SHT31;67829;51.968;5.684;2023-10-09T02:05:02;17.6;74.2
78536;SHT31;67829;51.968;5.684;2023-10-09T02:07:37;17.6;74.2
78536;SHT31;67829;51.968;5.684;2023-10-09T02:10:12;17.6;74.2
78536;SHT31;67829;51.968;5.684;2023-10-09T02:12:52;17.6;74.1
78536;SHT31;67829;51.968;5.684;2023-10-09T02:15:25;17.6;74.1
78536;SHT31;67829;51.968;5.684;2023-10-09T02:18:14;17.7;74.0
78536;SHT31;67829;51.968;5.684;2023-10-09T02:20:53;17.7;74.0
78536;SHT31;67829;51.968;5.684;2023-10-09T02:23:28;17.7;73.9
78536;SHT31;67829;51.968;5.684;2023-10-09T02:26:03;17.7;74.0
78536;SHT31;67829;51.968;5.684;2023-10-09T02:28:32;17.7;74.0
78536;SHT31;67829;51.968;5.684;2023-10-09T02:31:09;17.7;74.0
78536;SHT31;67829;51.968;5.684;2023-10-09T02:33:37;17.7;74.1
78536;SHT31;67829;51.968;5.684;2023-10-09T02:36:05;17.7;74.2
78536;SHT31;67829;51.968;5.684;2023-10-09T02:38:35;17.8;74.2
78536;SHT31;67829;51.968;5.684;2023-10-09T02:41:06;17.8;74.3
78536;SHT31;67829;51.968;5.684;2023-10-09T02:43:49;17.8;74.3
78536;SHT31;67829;51.968;5.684;2023-10-09T02:46:22;17.8;74.4
78536;SHT31;67829;51.968;5.684;2023-10-09T02:48:57;17.8;74.4
78536;SHT31;67829;51.968;5.684;2023-10-09T02:51:30;17.8;74.4
78536;SHT31;67829;51.968;5.684;2023-10-09T02:54:05;17.8;74.4
78536;SHT31;67829;51.968;5.684;2023-10-09T02:56:42;17.8;74.4
78536;SHT31;67829;51.968;5.684;2023-10-09T02:59:14;17.8;74.5
78536;SHT31;67829;51.968;5.684;2023-10-09T03:01:42;17.8;74.6
78536;SHT31;67829;51.968;5.684;2023-10-09T03:04:11;17.8;74.7
78536;SHT31;67829;51.968;5.684;2023-10-09T03:06:41;17.8;74.6
78536;SHT31;67829;51.968;5.684;2023-10-09T03:09:16;17.8;74.7
78536;SHT31;67829;51.968;5.684;2023-10-09T03:11:47;17.8;74.7
78536;SHT31;67829;51.968;5.684;2023-10-09T03:14:20;17.8;74.7
78536;SHT31;67829;51.968;5.684;2023-10-09T03:16:51;17.8;74.6
78536;SHT31;67829;51.968;5.684;2023-10-09T03:19:19;17.8;74.6
78536;SHT31;67829;51.968;5.684;2023-10-09T03:21:48;17.8;74.7
78536;SHT31;67829;51.968;5.684;2023-10-09T03:24:17;17.8;74.7
78536;SHT31;67829;51.968;5.684;2023-10-09T03:26:46;17.8;74.6
78536;SHT31;67829;51.968;5.684;2023-10-09T03:29:16;17.8;74.6
78536;SHT31;67829;51.968;5.684;2023-10-09T03:31:47;17.8;74.6
78536;SHT31;67829;51.968;5.684;2023-10-09T03:34:17;17.8;74.7
78536;SHT31;67829;51.968;5.684;2023-10-09T03:36:46;17.9;74.7
78536;SHT31;67829;51.968;5.684;2023-10-09T03:39:15;17.9;74.8
78536;SHT31;67829;51.968;5.684;2023-10-09T03:41:51;17.9;74.8
78536;SHT31;67829;51.968;5.684;2023-10-09T03:44:20;17.9;74.9
78536;SHT31;67829;51.968;5.684;2023-10-09T03:46:49;17.9;74.9
78536;SHT31;67829;51.968;5.684;2023-10-09T03:49:17;17.9;75.0
78536;SHT31;67829;51.968;5.684;2023-10-09T03:51:50;17.9;75.1
78536;SHT31;67829;51.968;5.684;2023-10-09T03:54:19;17.9;75.0
78536;SHT31;67829;51.968;5.684;2023-10-09T03:56:49;17.9;75.0
78536;SHT31;67829;51.968;5.684;2023-10-09T03:59:21;17.9;75.1
78536;SHT31;67829;51.968;5.684;2023-10-09T04:01:54;17.9;75.2
78536;SHT31;67829;51.968;5.684;2023-10-09T04:04:25;17.9;75.2
78536;SHT31;67829;51.968;5.684;2023-10-09T04:06:55;17.9;75.2
78536;SHT31;67829;51.968;5.684;2023-10-09T04:09:23;17.9;75.2
78536;SHT31;67829;51.968;5.684;2023-10-09T04:12:01;17.9;75.3
78536;SHT31;67829;51.968;5.684;2023-10-09T04:14:47;17.9;75.4
78536;SHT31;67829;51.968;5.684;2023-10-09T04:17:21;17.9;75.4
78536;SHT31;67829;51.968;5.684;2023-10-09T04:20:04;17.9;75.4
78536;SHT31;67829;51.968;5.684;2023-10-09T04:22:49;18.0;75.4
78536;SHT31;67829;51.968;5.684;2023-10-09T04:25:27;18.0;75.3
78536;SHT31;67829;51.968;5.684;2023-10-09T04:28:01;18.0;75.3
78536;SHT31;67829;51.968;5.684;2023-10-09T04:30:35;18.0;75.2
78536;SHT31;67829;51.968;5.684;2023-10-09T04:33:07;18.0;75.2
78536;SHT31;67829;51.968;5.684;2023-10-09T04:35:43;18.0;75.1
78536;SHT31;67829;51.968;5.684;2023-10-09T04:38:16;18.0;75.1
78536;SHT31;67829;51.968;5.684;2023-10-09T04:40:46;18.0;75.0
78536;SHT31;67829;51.968;5.684;2023-10-09T04:43:24;18.0;75.1
78536;SHT31;67829;51.968;5.684;2023-10-09T04:45:55;18.0;75.1
78536;SHT31;67829;51.968;5.684;2023-10-09T04:48:38;18.0;75.3
78536;SHT31;67829;51.968;5.684;2023-10-09T04:51:14;18.0;75.4
78536;SHT31;67829;51.968;5.684;2023-10-09T04:53:54;18.0;75.5
78536;SHT31;67829;51.968;5.684;2023-10-09T04:56:27;18.0;75.6
78536;SHT31;67829;51.968;5.684;2023-10-09T04:58:59;18.0;75.8
78536;SHT31;67829;51.968;5.684;2023-10-09T05:01:34;18.0;75.8
78536;SHT31;67829;51.968;5.684;2023-10-09T05:04:10;18.0;75.8
78536;SHT31;67829;51.968;5.684;2023-10-09T05:06:49;18.1;75.8
78536;SHT31;67829;51.968;5.684;2023-10-09T05:09:23;18.1;75.8
78536;SHT31;67829;51.968;5.684;2023-10-09T05:11:57;18.1;75.8
78536;SHT31;67829;51.968;5.684;2023-10-09T05:14:42;18.1;75.8
78536;SHT31;67829;51.968;5.684;2023-10-09T05:17:15;18.1;75.9
78536;SHT31;67829;51.968;5.684;2023-10-09T05:19:44;18.1;75.9
78536;SHT31;67829;51.968;5.684;2023-10-09T05:22:29;18.1;75.8
78536;SHT31;67829;51.968;5.684;2023-10-09T05:25:02;18.1;75.8
78536;SHT31;67829;51.968;5.684;2023-10-09T05:27:38;18.1;75.8
78536;SHT31;67829;51.968;5.684;2023-10-09T05:30:22;18.2;75.8
78536;SHT31;67829;51.968;5.684;2023-10-09T05:32:55;18.2;75.8
78536;SHT31;67829;51.968;5.684;2023-10-09T05:35:31;18.2;75.8
78536;SHT31;67829;51.968;5.684;2023-10-09T05:38:14;18.2;75.9
78536;SHT31;67829;51.968;5.684;2023-10-09T05:40:52;18.2;75.9
78536;SHT31;67829;51.968;5.684;2023-10-09T05:43:29;18.2;75.9
78536;SHT31;67829;51.968;5.684;2023-10-09T05:46:14;18.2;75.9
78536;SHT31;67829;51.968;5.684;2023-10-09T05:48:43;18.3;75.9
78536;SHT31;67829;51.968;5.684;2023-10-09T05:51:20;18.3;75.9
78536;SHT31;67829;51.968;5.684;2023-10-09T05:56:02;18.3;75.9
78536;SHT31;67829;51.968;5.684;2023-10-09T06:00:48;18.3;75.8
78536;SHT31;67829;51.968;5.684;2023-10-09T06:04:29;18.3;75.8
78536;SHT31;67829;51.968;5.684;2023-10-09T06:07:06;18.3;75.8
78536;SHT31;67829;51.968;5.684;2023-10-09T06:09:40;18.3;75.8
78536;SHT31;67829;51.968;5.684;2023-10-09T06:12:19;18.4;75.8
78536;SHT31;67829;51.968;5.684;2023-10-09T06:15:09;18.4;75.8
78536;SHT31;67829;51.968;5.684;2023-10-09T06:17:54;18.4;75.7
78536;SHT31;67829;51.968;5.684;2023-10-09T06:20:28;18.4;75.7
78536;SHT31;67829;51.968;5.684;2023-10-09T06:23:13;18.4;75.8
78536;SHT31;67829;51.968;5.684;2023-10-09T06:25:51;18.4;75.8
78536;SHT31;67829;51.968;5.684;2023-10-09T06:28:19;18.4;75.8
78536;SHT31;67829;51.968;5.684;2023-10-09T06:30:53;18.4;75.7
78536;SHT31;67829;51.968;5.684;2023-10-09T06:33:27;18.5;75.7
78536;SHT31;67829;51.968;5.684;2023-10-09T06:36:02;18.5;75.8
78536;SHT31;67829;51.968;5.684;2023-10-09T06:38:34;18.5;75.7
78536;SHT31;67829;51.968;5.684;2023-10-09T06:41:13;18.5;75.8
78536;SHT31;67829;51.968;5.684;2023-10-09T06:43:58;18.5;75.8
78536;SHT31;67829;51.968;5.684;2023-10-09T06:46:32;18.5;75.8
78536;SHT31;67829;51.968;5.684;2023-10-09T06:49:12;18.5;75.8
78536;SHT31;67829;51.968;5.684;2023-10-09T06:51:59;18.5;75.9
78536;SHT31;67829;51.968;5.684;2023-10-09T06:54:42;18.5;76.0
78536;SHT31;67829;51.968;5.684;2023-10-09T06:57:18;18.5;75.9
78536;SHT31;67829;51.968;5.684;2023-10-09T07:00:15;18.6;75.9
78536;SHT31;67829;51.968;5.684;2023-10-09T07:03:00;18.6;75.8
78536;SHT31;67829;51.968;5.684;2023-10-09T07:05:34;18.6;75.8
78536;SHT31;67829;51.968;5.684;2023-10-09T07:08:08;18.6;75.8
78536;SHT31;67829;51.968;5.684;2023-10-09T07:10:58;18.6;75.8
78536;SHT31;67829;51.968;5.684;2023-10-09T07:13:36;18.7;75.8
78536;SHT31;67829;51.968;5.684;2023-10-09T07:16:04;18.7;75.9
78536;SHT31;67829;51.968;5.684;2023-10-09T07:19:20;18.7;75.9
78536;SHT31;67829;51.968;5.684;2023-10-09T07:21:54;18.7;75.8
78536;SHT31;67829;51.968;5.684;2023-10-09T07:24:28;18.8;75.8
78536;SHT31;67829;51.968;5.684;2023-10-09T07:27:01;18.8;75.8
78536;SHT31;67829;51.968;5.684;2023-10-09T07:29:33;18.8;75.8
78536;SHT31;67829;51.968;5.684;2023-10-09T07:32:06;18.8;75.7
78536;SHT31;67829;51.968;5.684;2023-10-09T07:34:38;18.8;75.8
78536;SHT31;67829;51.968;5.684;2023-10-09T07:37:22;18.9;75.8
78536;SHT31;67829;51.968;5.684;2023-10-09T07:39:52;18.9;75.8
78536;SHT31;67829;51.968;5.684;2023-10-09T07:42:25;18.9;75.8
78536;SHT31;67829;51.968;5.684;2023-10-09T07:45:10;18.9;75.7
78536;SHT31;67829;51.968;5.684;2023-10-09T07:48:26;19.0;75.7
78536;SHT31;67829;51.968;5.684;2023-10-09T07:51:00;19.0;75.7
78536;SHT31;67829;51.968;5.684;2023-10-09T07:53:31;19.0;75.9
78536;SHT31;67829;51.968;5.684;2023-10-09T07:56:05;19.0;75.9
78536;SHT31;67829;51.968;5.684;2023-10-09T07:58:35;19.1;76.1
78536;SHT31;67829;51.968;5.684;2023-10-09T08:01:08;19.1;76.1
78536;SHT31;67829;51.968;5.684;2023-10-09T08:03:49;19.1;76.1
78536;SHT31;67829;51.968;5.684;2023-10-09T08:06:24;19.1;76.1
78536;SHT31;67829;51.968;5.684;2023-10-09T08:09:06;19.2;76.1
78536;SHT31;67829;51.968;5.684;2023-10-09T08:11:53;19.2;76.2
78536;SHT31;67829;51.968;5.684;2023-10-09T08:14:38;19.3;76.3
78536;SHT31;67829;51.968;5.684;2023-10-09T08:17:14;19.3;75.8
78536;SHT31;67829;51.968;5.684;2023-10-09T08:19:50;19.3;75.9
78536;SHT31;67829;51.968;5.684;2023-10-09T08:22:26;19.4;75.8
78536;SHT31;67829;51.968;5.684;2023-10-09T08:25:16;19.4;75.8
78536;SHT31;67829;51.968;5.684;2023-10-09T08:28:00;19.4;75.5
78536;SHT31;67829;51.968;5.684;2023-10-09T08:31:02;19.5;75.4
78536;SHT31;67829;51.968;5.684;2023-10-09T08:33:36;19.5;75.2
78536;SHT31;67829;51.968;5.684;2023-10-09T08:36:10;19.5;75.5
78536;SHT31;67829;51.968;5.684;2023-10-09T08:38:41;19.6;75.2
78536;SHT31;67829;51.968;5.684;2023-10-09T08:41:12;19.6;75.4
78536;SHT31;67829;51.968;5.684;2023-10-09T08:43:50;19.6;75.4
78536;SHT31;67829;51.968;5.684;2023-10-09T08:46:24;19.7;75.6
78536;SHT31;67829;51.968;5.684;2023-10-09T08:48:55;19.7;75.2
78536;SHT31;67829;51.968;5.684;2023-10-09T08:51:27;19.7;75.0
78536;SHT31;67829;51.968;5.684;2023-10-09T08:53:56;19.8;75.1
78536;SHT31;67829;51.968;5.684;2023-10-09T08:56:25;19.8;75.1
78536;SHT31;67829;51.968;5.684;2023-10-09T08:58:56;19.9;74.8
78536;SHT31;67829;51.968;5.684;2023-10-09T09:01:25;19.9;74.4
78536;SHT31;67829;51.968;5.684;2023-10-09T09:03:58;19.9;74.4
78536;SHT31;67829;51.968;5.684;2023-10-09T09:06:38;20.0;74.4
78536;SHT31;67829;51.968;5.684;2023-10-09T09:09:12;20.0;74.7
78536;SHT31;67829;51.968;5.684;2023-10-09T09:11:43;20.1;74.6
78536;SHT31;67829;51.968;5.684;2023-10-09T09:14:17;20.1;74.6
78536;SHT31;67829;51.968;5.684;2023-10-09T09:16:48;20.1;74.7
78536;SHT31;67829;51.968;5.684;2023-10-09T09:19:18;20.2;74.4
78536;SHT31;67829;51.968;5.684;2023-10-09T09:21:52;20.3;74.1
78536;SHT31;67829;51.968;5.684;2023-10-09T09:24:25;20.3;74.0
78536;SHT31;67829;51.968;5.684;2023-10-09T09:27:03;20.3;73.2
78536;SHT31;67829;51.968;5.684;2023-10-09T09:29:42;20.4;72.8
78536;SHT31;67829;51.968;5.684;2023-10-09T09:32:15;20.4;72.7
78536;SHT31;67829;51.968;5.684;2023-10-09T09:34:46;20.5;72.8
78536;SHT31;67829;51.968;5.684;2023-10-09T09:37:21;20.5;72.4
78536;SHT31;67829;51.968;5.684;2023-10-09T09:39:52;20.5;72.9
78536;SHT31;67829;51.968;5.684;2023-10-09T09:42:23;20.6;72.7
78536;SHT31;67829;51.968;5.684;2023-10-09T09:44:53;20.6;72.4
78536;SHT31;67829;51.968;5.684;2023-10-09T09:47:23;20.7;72.5
78536;SHT31;67829;51.968;5.684;2023-10-09T09:49:53;20.7;72.8
78536;SHT31;67829;51.968;5.684;2023-10-09T09:52:26;20.8;72.7
78536;SHT31;67829;51.968;5.684;2023-10-09T09:54:55;20.8;71.8
78536;SHT31;67829;51.968;5.684;2023-10-09T09:57:24;20.9;72.2
78536;SHT31;67829;51.968;5.684;2023-10-09T09:59:56;20.9;71.7
78536;SHT31;67829;51.968;5.684;2023-10-09T10:02:36;20.9;71.3
78536;SHT31;67829;51.968;5.684;2023-10-09T10:05:10;21.0;71.3
78536;SHT31;67829;51.968;5.684;2023-10-09T10:07:42;21.0;70.7
78536;SHT31;67829;51.968;5.684;2023-10-09T10:10:38;21.1;70.8
78536;SHT31;67829;51.968;5.684;2023-10-09T10:13:12;21.1;70.3
78536;SHT31;67829;51.968;5.684;2023-10-09T10:16:04;21.1;69.8
78536;SHT31;67829;51.968;5.684;2023-10-09T10:18:54;21.2;69.9
78536;SHT31;67829;51.968;5.684;2023-10-09T10:21:27;21.2;69.0
78536;SHT31;67829;51.968;5.684;2023-10-09T10:27:16;21.3;70.1
78536;SHT31;67829;51.968;5.684;2023-10-09T10:30:28;21.3;69.6
78536;SHT31;67829;51.968;5.684;2023-10-09T10:33:03;21.4;69.9
78536;SHT31;67829;51.968;5.684;2023-10-09T10:35:42;21.4;69.0
78536;SHT31;67829;51.968;5.684;2023-10-09T10:38:29;21.4;68.7
78536;SHT31;67829;51.968;5.684;2023-10-09T10:41:16;21.5;69.3
78536;SHT31;67829;51.968;5.684;2023-10-09T10:43:46;21.5;68.7
78536;SHT31;67829;51.968;5.684;2023-10-09T10:46:26;21.6;68.5
78536;SHT31;67829;51.968;5.684;2023-10-09T10:49:08;21.6;68.5
78536;SHT31;67829;51.968;5.684;2023-10-09T10:51:51;21.6;67.7
78536;SHT31;67829;51.968;5.684;2023-10-09T10:54:27;21.7;68.0
78536;SHT31;67829;51.968;5.684;2023-10-09T10:57:21;21.7;68.4
78536;SHT31;67829;51.968;5.684;2023-10-09T11:00:12;21.8;68.6
78536;SHT31;67829;51.968;5.684;2023-10-09T11:02:46;21.8;68.0
78536;SHT31;67829;51.968;5.684;2023-10-09T11:05:15;21.9;68.1
78536;SHT31;67829;51.968;5.684;2023-10-09T11:07:49;21.9;67.3
78536;SHT31;67829;51.968;5.684;2023-10-09T11:10:21;22.0;68.1
78536;SHT31;67829;51.968;5.684;2023-10-09T11:12:55;22.0;67.3
78536;SHT31;67829;51.968;5.684;2023-10-09T11:15:45;22.1;67.5
78536;SHT31;67829;51.968;5.684;2023-10-09T11:18:19;22.1;67.6
78536;SHT31;67829;51.968;5.684;2023-10-09T11:20:53;22.1;66.6
78536;SHT31;67829;51.968;5.684;2023-10-09T11:23:31;22.2;66.4
78536;SHT31;67829;51.968;5.684;2023-10-09T11:26:07;22.2;66.2
78536;SHT31;67829;51.968;5.684;2023-10-09T11:29:07;22.3;66.6
78536;SHT31;67829;51.968;5.684;2023-10-09T11:31:59;22.3;66.5
78536;SHT31;67829;51.968;5.684;2023-10-09T11:34:29;22.4;65.8
78536;SHT31;67829;51.968;5.684;2023-10-09T11:37:00;22.4;66.2
78536;SHT31;67829;51.968;5.684;2023-10-09T11:39:31;22.4;66.1
78536;SHT31;67829;51.968;5.684;2023-10-09T11:42:05;22.5;65.2
78536;SHT31;67829;51.968;5.684;2023-10-09T11:44:39;22.5;65.1
78536;SHT31;67829;51.968;5.684;2023-10-09T11:47:11;22.5;64.6
78536;SHT31;67829;51.968;5.684;2023-10-09T11:49:58;22.6;64.3
78536;SHT31;67829;51.968;5.684;2023-10-09T11:52:59;22.6;65.6
78536;SHT31;67829;51.968;5.684;2023-10-09T11:55:41;22.6;65.7
78536;SHT31;67829;51.968;5.684;2023-10-09T11:58:15;22.7;65.6
78536;SHT31;67829;51.968;5.684;2023-10-09T12:00:48;22.7;64.4
78536;SHT31;67829;51.968;5.684;2023-10-09T12:03:18;22.8;64.6
78536;SHT31;67829;51.968;5.684;2023-10-09T12:05:50;22.8;64.2
78536;SHT31;67829;51.968;5.684;2023-10-09T12:08:19;22.8;64.1
78536;SHT31;67829;51.968;5.684;2023-10-09T12:10:48;22.9;64.0
78536;SHT31;67829;51.968;5.684;2023-10-09T12:13:21;22.9;62.9
78536;SHT31;67829;51.968;5.684;2023-10-09T12:15:50;22.9;61.8
78536;SHT31;67829;51.968;5.684;2023-10-09T12:18:21;23.0;61.7
78536;SHT31;67829;51.968;5.684;2023-10-09T12:20:51;23.0;61.7
78536;SHT31;67829;51.968;5.684;2023-10-09T12:23:23;23.0;62.2
78536;SHT31;67829;51.968;5.684;2023-10-09T12:25:54;23.0;62.3
78536;SHT31;67829;51.968;5.684;2023-10-09T12:28:23;23.0;62.7
78536;SHT31;67829;51.968;5.684;2023-10-09T12:30:51;23.0;62.4
78536;SHT31;67829;51.968;5.684;2023-10-09T12:33:21;23.0;62.4
78536;SHT31;67829;51.968;5.684;2023-10-09T12:35:55;23.0;61.7
78536;SHT31;67829;51.968;5.684;2023-10-09T12:38:26;23.1;61.6
78536;SHT31;67829;51.968;5.684;2023-10-09T12:41:02;23.1;61.5
78536;SHT31;67829;51.968;5.684;2023-10-09T12:43:34;23.1;61.5
78536;SHT31;67829;51.968;5.684;2023-10-09T12:46:06;23.1;60.9
78536;SHT31;67829;51.968;5.684;2023-10-09T12:48:34;23.1;61.5
78536;SHT31;67829;51.968;5.684;2023-10-09T12:51:04;23.1;61.4
78536;SHT31;67829;51.968;5.684;2023-10-09T12:53:34;23.1;61.7
78536;SHT31;67829;51.968;5.684;2023-10-09T12:56:07;23.1;62.1
78536;SHT31;67829;51.968;5.684;2023-10-09T12:58:38;23.1;61.4
78536;SHT31;67829;51.968;5.684;2023-10-09T13:01:11;23.1;60.9
78536;SHT31;67829;51.968;5.684;2023-10-09T13:03:39;23.1;62.2
78536;SHT31;67829;51.968;5.684;2023-10-09T13:06:08;23.1;61.8
78536;SHT31;67829;51.968;5.684;2023-10-09T13:08:38;23.1;62.0
78536;SHT31;67829;51.968;5.684;2023-10-09T13:11:09;23.2;61.8
78536;SHT31;67829;51.968;5.684;2023-10-09T13:13:44;23.2;61.9
78536;SHT31;67829;51.968;5.684;2023-10-09T13:16:15;23.2;61.3
78536;SHT31;67829;51.968;5.684;2023-10-09T13:18:50;23.2;61.2
78536;SHT31;67829;51.968;5.684;2023-10-09T13:21:21;23.2;61.5
78536;SHT31;67829;51.968;5.684;2023-10-09T13:23:50;23.2;61.6
78536;SHT31;67829;51.968;5.684;2023-10-09T13:26:21;23.2;61.8
78536;SHT31;67829;51.968;5.684;2023-10-09T13:28:57;23.2;61.4
78536;SHT31;67829;51.968;5.684;2023-10-09T13:31:26;23.2;61.6
78536;SHT31;67829;51.968;5.684;2023-10-09T13:33:58;23.2;61.3
78536;SHT31;67829;51.968;5.684;2023-10-09T13:36:27;23.2;61.3
78536;SHT31;67829;51.968;5.684;2023-10-09T13:38:58;23.2;61.4
78536;SHT31;67829;51.968;5.684;2023-10-09T13:41:34;23.2;61.8
78536;SHT31;67829;51.968;5.684;2023-10-09T13:44:02;23.2;61.6
78536;SHT31;67829;51.968;5.684;2023-10-09T13:46:31;23.2;61.6
78536;SHT31;67829;51.968;5.684;2023-10-09T13:49:04;23.2;62.1
78536;SHT31;67829;51.968;5.684;2023-10-09T13:51:40;23.2;61.3
78536;SHT31;67829;51.968;5.684;2023-10-09T13:54:10;23.2;61.6
78536;SHT31;67829;51.968;5.684;2023-10-09T13:56:43;23.2;61.7
78536;SHT31;67829;51.968;5.684;2023-10-09T13:59:14;23.2;62.0
78536;SHT31;67829;51.968;5.684;2023-10-09T14:01:46;23.2;61.7
78536;SHT31;67829;51.968;5.684;2023-10-09T14:04:16;23.2;62.0
78536;SHT31;67829;51.968;5.684;2023-10-09T14:06:47;23.2;61.7
78536;SHT31;67829;51.968;5.684;2023-10-09T14:09:15;23.2;61.5
78536;SHT31;67829;51.968;5.684;2023-10-09T14:11:58;23.2;61.6
78536;SHT31;67829;51.968;5.684;2023-10-09T14:14:35;23.2;62.1
78536;SHT31;67829;51.968;5.684;2023-10-09T14:17:05;23.2;62.3
78536;SHT31;67829;51.968;5.684;2023-10-09T14:19:38;23.2;62.0
78536;SHT31;67829;51.968;5.684;2023-10-09T14:22:07;23.2;62.1
78536;SHT31;67829;51.968;5.684;2023-10-09T14:24:35;23.2;62.0
78536;SHT31;67829;51.968;5.684;2023-10-09T14:27:05;23.2;62.3
78536;SHT31;67829;51.968;5.684;2023-10-09T14:29:37;23.2;61.7
78536;SHT31;67829;51.968;5.684;2023-10-09T14:32:06;23.2;62.1
78536;SHT31;67829;51.968;5.684;2023-10-09T14:34:39;23.2;61.6
78536;SHT31;67829;51.968;5.684;2023-10-09T14:37:14;23.2;61.7
78536;SHT31;67829;51.968;5.684;2023-10-09T14:39:42;23.2;61.7
78536;SHT31;67829;51.968;5.684;2023-10-09T14:42:14;23.2;62.5
78536;SHT31;67829;51.968;5.684;2023-10-09T14:44:45;23.2;62.0
78536;SHT31;67829;51.968;5.684;2023-10-09T14:47:16;23.1;61.9
78536;SHT31;67829;51.968;5.684;2023-10-09T14:49:47;23.1;61.8
78536;SHT31;67829;51.968;5.684;2023-10-09T14:52:16;23.1;62.0
78536;SHT31;67829;51.968;5.684;2023-10-09T14:54:47;23.1;62.5
78536;SHT31;67829;51.968;5.684;2023-10-09T14:57:16;23.1;62.6
78536;SHT31;67829;51.968;5.684;2023-10-09T14:59:45;23.1;62.3
78536;SHT31;67829;51.968;5.684;2023-10-09T15:02:15;23.1;62.3
78536;SHT31;67829;51.968;5.684;2023-10-09T15:04:44;23.1;61.9
78536;SHT31;67829;51.968;5.684;2023-10-09T15:07:12;23.1;61.3
78536;SHT31;67829;51.968;5.684;2023-10-09T15:09:41;23.1;61.7
78536;SHT31;67829;51.968;5.684;2023-10-09T15:12:10;23.1;61.7
78536;SHT31;67829;51.968;5.684;2023-10-09T15:14:40;23.1;61.6
78536;SHT31;67829;51.968;5.684;2023-10-09T15:17:11;23.2;62.1
78536;SHT31;67829;51.968;5.684;2023-10-09T15:19:42;23.2;61.9
78536;SHT31;67829;51.968;5.684;2023-10-09T15:22:11;23.2;62.0
78536;SHT31;67829;51.968;5.684;2023-10-09T15:24:40;23.2;62.2
78536;SHT31;67829;51.968;5.684;2023-10-09T15:27:09;23.2;61.8
78536;SHT31;67829;51.968;5.684;2023-10-09T15:29:39;23.2;61.8
78536;SHT31;67829;51.968;5.684;2023-10-09T15:32:12;23.1;62.2
78536;SHT31;67829;51.968;5.684;2023-10-09T15:34:47;23.1;62.0
78536;SHT31;67829;51.968;5.684;2023-10-09T15:37:16;23.1;61.9
78536;SHT31;67829;51.968;5.684;2023-10-09T15:39:45;23.1;61.9
78536;SHT31;67829;51.968;5.684;2023-10-09T15:42:13;23.1;62.1
78536;SHT31;67829;51.968;5.684;2023-10-09T15:44:42;23.0;62.2
78536;SHT31;67829;51.968;5.684;2023-10-09T15:47:16;23.0;62.2
78536;SHT31;67829;51.968;5.684;2023-10-09T15:49:45;23.0;62.1
78536;SHT31;67829;51.968;5.684;2023-10-09T15:52:13;23.0;62.3
78536;SHT31;67829;51.968;5.684;2023-10-09T15:54:42;22.9;62.6
78536;SHT31;67829;51.968;5.684;2023-10-09T15:57:11;22.9;62.9
78536;SHT31;67829;51.968;5.684;2023-10-09T15:59:39;22.9;63.0
78536;SHT31;67829;51.968;5.684;2023-10-09T16:02:08;22.9;63.2
78536;SHT31;67829;51.968;5.684;2023-10-09T16:04:37;22.9;63.0
78536;SHT31;67829;51.968;5.684;2023-10-09T16:07:07;22.8;63.2
78536;SHT31;67829;51.968;5.684;2023-10-09T16:09:36;22.8;63.1
78536;SHT31;67829;51.968;5.684;2023-10-09T16:12:06;22.8;62.7
78536;SHT31;67829;51.968;5.684;2023-10-09T16:14:36;22.8;63.0
78536;SHT31;67829;51.968;5.684;2023-10-09T16:17:04;22.7;63.5
78536;SHT31;67829;51.968;5.684;2023-10-09T16:19:35;22.7;63.4
78536;SHT31;67829;51.968;5.684;2023-10-09T16:22:04;22.6;63.7
78536;SHT31;67829;51.968;5.684;2023-10-09T16:24:34;22.6;63.9
78536;SHT31;67829;51.968;5.684;2023-10-09T16:27:03;22.6;63.9
78536;SHT31;67829;51.968;5.684;2023-10-09T16:29:33;22.5;63.6
78536;SHT31;67829;51.968;5.684;2023-10-09T16:32:02;22.5;64.1
78536;SHT31;67829;51.968;5.684;2023-10-09T16:34:33;22.5;64.5
78536;SHT31;67829;51.968;5.684;2023-10-09T16:37:05;22.5;64.7
78536;SHT31;67829;51.968;5.684;2023-10-09T16:39:35;22.4;64.9
78536;SHT31;67829;51.968;5.684;2023-10-09T16:42:05;22.4;64.9
78536;SHT31;67829;51.968;5.684;2023-10-09T16:44:37;22.4;65.2
78536;SHT31;67829;51.968;5.684;2023-10-09T16:47:06;22.4;65.2
78536;SHT31;67829;51.968;5.684;2023-10-09T16:49:35;22.4;64.5
78536;SHT31;67829;51.968;5.684;2023-10-09T16:52:06;22.4;64.4
78536;SHT31;67829;51.968;5.684;2023-10-09T16:54:37;22.4;65.0
78536;SHT31;67829;51.968;5.684;2023-10-09T16:57:06;22.4;64.6